sensor_id;sensor_type;location;lat;lon;timestamp;P1;durP1;ratioP1;P2;durP2;ratioP2
5245;SDS011;54412;51.206;6.888;2022-09-24T00:01:28;10.80;;;5.00;;
5245;SDS011;54412;51.206;6.888;2022-09-24T00:04:00;9.37;;;5.23;;
5245;SDS011;54412;51.206;6.888;2022-09-24T00:06:32;6.37;;;5.73;;
5245;SDS011;54412;51.206;6.888;2022-09-24T00:09:01;12.43;;;5.70;;
5245;SDS011;54412;51.206;6.888;2022-09-24T00:11:28;7.73;;;5.10;;
5245;SDS011;54412;51.206;6.888;2022-09-24T00:13:54;8.30;;;5.00;;
5245;SDS011;54412;51.206;6.888;2022-09-24T00:16:22;19.17;;;5.10;;
5245;SDS011;54412;51.206;6.888;2022-09-24T00:18:51;7.07;;;4.30;;
5245;SDS011;54412;51.206;6.888;2022-09-24T00:23:47;24.63;;;5.00;;
5245;SDS011;54412;51.206;6.888;2022-09-24T00:26:19;5.07;;;4.57;;
5245;SDS011;54412;51.206;6.888;2022-09-24T00:29:04;8.70;;;5.80;;
5245;SDS011;54412;51.206;6.888;2022-09-24T00:31:32;6.50;;;5.23;;
5245;SDS011;54412;51.206;6.888;2022-09-24T00:33:58;10.83;;;4.77;;
5245;SDS011;54412;51.206;6.888;2022-09-24T00:36:25;8.33;;;4.83;;
5245;SDS011;54412;51.206;6.888;2022-09-24T00:38:52;7.40;;;5.00;;
5245;SDS011;54412;51.206;6.888;2022-09-24T00:41:21;7.83;;;4.93;;
5245;SDS011;54412;51.206;6.888;2022-09-24T00:43:51;6.33;;;4.40;;
5245;SDS011;54412;51.206;6.888;2022-09-24T00:46:19;5.30;;;4.80;;
5245;SDS011;54412;51.206;6.888;2022-09-24T00:49:00;7.53;;;5.30;;
5245;SDS011;54412;51.206;6.888;2022-09-24T00:51:48;8.70;;;5.47;;
5245;SDS011;54412;51.206;6.888;2022-09-24T00:54:18;11.60;;;5.13;;
5245;SDS011;54412;51.206;6.888;2022-09-24T00:56:52;8.53;;;4.90;;
5245;SDS011;54412;51.206;6.888;2022-09-24T00:59:21;8.00;;;5.80;;
5245;SDS011;54412;51.206;6.888;2022-09-24T01:01:49;8.33;;;5.03;;
5245;SDS011;54412;51.206;6.888;2022-09-24T01:04:22;6.47;;;5.20;;
5245;SDS011;54412;51.206;6.888;2022-09-24T01:06:52;7.77;;;5.20;;
5245;SDS011;54412;51.206;6.888;2022-09-24T01:09:20;10.37;;;6.07;;
5245;SDS011;54412;51.206;6.888;2022-09-24T01:23:29;14.60;;;6.10;;
5245;SDS011;54412;51.206;6.888;2022-09-24T01:26:47;6.10;;;5.50;;
5245;SDS011;54412;51.206;6.888;2022-09-24T01:32:35;7.40;;;6.00;;
5245;SDS011;54412;51.206;6.888;2022-09-24T01:37:53;7.53;;;5.50;;
5245;SDS011;54412;51.206;6.888;2022-09-24T01:40:27;7.30;;;5.40;;
5245;SDS011;54412;51.206;6.888;2022-09-24T01:42:56;17.00;;;5.63;;
5245;SDS011;54412;51.206;6.888;2022-09-24T01:45:24;9.30;;;5.50;;
5245;SDS011;54412;51.206;6.888;2022-09-24T01:47:55;8.90;;;5.80;;
5245;SDS011;54412;51.206;6.888;2022-09-24T01:50:21;7.00;;;5.00;;
5245;SDS011;54412;51.206;6.888;2022-09-24T01:52:55;9.20;;;5.70;;
5245;SDS011;54412;51.206;6.888;2022-09-24T01:55:29;10.53;;;5.40;;
5245;SDS011;54412;51.206;6.888;2022-09-24T01:58:09;9.77;;;5.17;;
5245;SDS011;54412;51.206;6.888;2022-09-24T02:00:41;12.23;;;5.30;;
5245;SDS011;54412;51.206;6.888;2022-09-24T02:03:14;5.57;;;4.50;;
5245;SDS011;54412;51.206;6.888;2022-09-24T02:05:53;5.93;;;4.80;;
5245;SDS011;54412;51.206;6.888;2022-09-24T02:08:35;11.50;;;5.20;;
5245;SDS011;54412;51.206;6.888;2022-09-24T02:11:12;6.33;;;5.20;;
5245;SDS011;54412;51.206;6.888;2022-09-24T02:14:23;8.80;;;5.20;;
5245;SDS011;54412;51.206;6.888;2022-09-24T02:16:43;5.77;;;4.80;;
5245;SDS011;54412;51.206;6.888;2022-09-24T02:19:14;6.83;;;5.60;;
5245;SDS011;54412;51.206;6.888;2022-09-24T02:21:46;9.90;;;5.13;;
5245;SDS011;54412;51.206;6.888;2022-09-24T02:24:15;6.77;;;5.03;;
5245;SDS011;54412;51.206;6.888;2022-09-24T02:26:47;7.90;;;4.87;;
5245;SDS011;54412;51.206;6.888;2022-09-24T02:29:14;7.70;;;4.93;;
5245;SDS011;54412;51.206;6.888;2022-09-24T02:31:41;6.07;;;5.03;;
5245;SDS011;54412;51.206;6.888;2022-09-24T02:34:14;7.03;;;5.63;;
5245;SDS011;54412;51.206;6.888;2022-09-24T02:36:58;12.23;;;5.17;;
5245;SDS011;54412;51.206;6.888;2022-09-24T02:39:32;11.83;;;5.30;;
5245;SDS011;54412;51.206;6.888;2022-09-24T02:41:58;6.93;;;5.17;;
5245;SDS011;54412;51.206;6.888;2022-09-24T02:44:24;8.13;;;4.83;;
5245;SDS011;54412;51.206;6.888;2022-09-24T02:46:50;7.77;;;5.20;;
5245;SDS011;54412;51.206;6.888;2022-09-24T02:49:16;15.83;;;5.50;;
5245;SDS011;54412;51.206;6.888;2022-09-24T02:51:42;7.23;;;5.87;;
5245;SDS011;54412;51.206;6.888;2022-09-24T02:54:09;9.00;;;5.87;;
5245;SDS011;54412;51.206;6.888;2022-09-24T02:56:35;8.03;;;5.30;;
5245;SDS011;54412;51.206;6.888;2022-09-24T02:59:01;5.70;;;5.10;;
5245;SDS011;54412;51.206;6.888;2022-09-24T03:01:28;11.37;;;5.90;;
5245;SDS011;54412;51.206;6.888;2022-09-24T03:03:56;11.80;;;6.37;;
5245;SDS011;54412;51.206;6.888;2022-09-24T03:06:22;7.07;;;5.03;;
5245;SDS011;54412;51.206;6.888;2022-09-24T03:08:51;6.10;;;5.33;;
5245;SDS011;54412;51.206;6.888;2022-09-24T03:11:18;6.30;;;5.40;;
5245;SDS011;54412;51.206;6.888;2022-09-24T03:13:48;7.67;;;5.77;;
5245;SDS011;54412;51.206;6.888;2022-09-24T03:16:15;12.10;;;5.50;;
5245;SDS011;54412;51.206;6.888;2022-09-24T03:18:42;10.00;;;5.53;;
5245;SDS011;54412;51.206;6.888;2022-09-24T03:21:12;8.20;;;5.67;;
5245;SDS011;54412;51.206;6.888;2022-09-24T03:23:40;6.90;;;5.93;;
5245;SDS011;54412;51.206;6.888;2022-09-24T03:26:06;6.27;;;5.17;;
5245;SDS011;54412;51.206;6.888;2022-09-24T03:28:32;8.80;;;6.67;;
5245;SDS011;54412;51.206;6.888;2022-09-24T03:30:59;5.97;;;4.90;;
5245;SDS011;54412;51.206;6.888;2022-09-24T03:33:26;11.80;;;5.77;;
5245;SDS011;54412;51.206;6.888;2022-09-24T03:36:02;9.03;;;5.30;;
5245;SDS011;54412;51.206;6.888;2022-09-24T03:38:34;7.73;;;5.43;;
5245;SDS011;54412;51.206;6.888;2022-09-24T03:41:02;5.80;;;5.13;;
5245;SDS011;54412;51.206;6.888;2022-09-24T03:43:29;8.23;;;5.67;;
5245;SDS011;54412;51.206;6.888;2022-09-24T03:45:56;12.67;;;5.67;;
5245;SDS011;54412;51.206;6.888;2022-09-24T03:48:23;11.57;;;6.03;;
5245;SDS011;54412;51.206;6.888;2022-09-24T03:50:49;8.03;;;5.80;;
5245;SDS011;54412;51.206;6.888;2022-09-24T03:53:16;7.43;;;5.70;;
5245;SDS011;54412;51.206;6.888;2022-09-24T03:55:43;12.80;;;6.40;;
5245;SDS011;54412;51.206;6.888;2022-09-24T03:58:18;7.10;;;5.10;;
5245;SDS011;54412;51.206;6.888;2022-09-24T04:00:44;12.57;;;6.13;;
5245;SDS011;54412;51.206;6.888;2022-09-24T04:03:10;6.90;;;5.60;;
5245;SDS011;54412;51.206;6.888;2022-09-24T04:05:35;7.73;;;6.00;;
5245;SDS011;54412;51.206;6.888;2022-09-24T04:08:01;8.90;;;6.10;;
5245;SDS011;54412;51.206;6.888;2022-09-24T04:10:31;9.37;;;6.30;;
5245;SDS011;54412;51.206;6.888;2022-09-24T04:12:57;9.00;;;6.07;;
5245;SDS011;54412;51.206;6.888;2022-09-24T04:15:23;7.83;;;5.73;;
5245;SDS011;54412;51.206;6.888;2022-09-24T04:20:15;6.47;;;5.67;;
5245;SDS011;54412;51.206;6.888;2022-09-24T04:22:45;7.60;;;5.60;;
5245;SDS011;54412;51.206;6.888;2022-09-24T04:25:11;8.47;;;6.10;;
5245;SDS011;54412;51.206;6.888;2022-09-24T04:27:37;10.73;;;6.40;;
5245;SDS011;54412;51.206;6.888;2022-09-24T04:30:03;8.13;;;6.57;;
5245;SDS011;54412;51.206;6.888;2022-09-24T04:32:29;8.67;;;5.40;;
5245;SDS011;54412;51.206;6.888;2022-09-24T04:34:55;9.23;;;5.40;;
5245;SDS011;54412;51.206;6.888;2022-09-24T04:37:21;9.53;;;6.90;;
5245;SDS011;54412;51.206;6.888;2022-09-24T04:39:46;9.40;;;6.00;;
5245;SDS011;54412;51.206;6.888;2022-09-24T04:42:16;5.97;;;5.03;;
5245;SDS011;54412;51.206;6.888;2022-09-24T04:44:42;6.63;;;5.90;;
5245;SDS011;54412;51.206;6.888;2022-09-24T04:47:12;8.30;;;5.37;;
5245;SDS011;54412;51.206;6.888;2022-09-24T04:49:39;5.60;;;4.97;;
5245;SDS011;54412;51.206;6.888;2022-09-24T04:52:09;8.47;;;6.50;;
5245;SDS011;54412;51.206;6.888;2022-09-24T04:54:39;6.80;;;5.70;;
5245;SDS011;54412;51.206;6.888;2022-09-24T04:57:12;8.40;;;6.23;;
5245;SDS011;54412;51.206;6.888;2022-09-24T04:59:38;17.53;;;5.67;;
5245;SDS011;54412;51.206;6.888;2022-09-24T05:02:04;5.97;;;5.30;;
5245;SDS011;54412;51.206;6.888;2022-09-24T05:04:36;5.90;;;5.13;;
5245;SDS011;54412;51.206;6.888;2022-09-24T05:07:02;7.63;;;5.20;;
5245;SDS011;54412;51.206;6.888;2022-09-24T05:09:29;9.13;;;5.33;;
5245;SDS011;54412;51.206;6.888;2022-09-24T05:11:58;6.33;;;5.13;;
5245;SDS011;54412;51.206;6.888;2022-09-24T05:14:24;7.90;;;6.10;;
5245;SDS011;54412;51.206;6.888;2022-09-24T05:16:50;10.10;;;6.40;;
5245;SDS011;54412;51.206;6.888;2022-09-24T05:19:16;7.70;;;6.53;;
5245;SDS011;54412;51.206;6.888;2022-09-24T05:21:42;7.10;;;5.80;;
5245;SDS011;54412;51.206;6.888;2022-09-24T05:24:08;11.90;;;5.77;;
5245;SDS011;54412;51.206;6.888;2022-09-24T05:26:34;9.40;;;6.00;;
5245;SDS011;54412;51.206;6.888;2022-09-24T05:29:18;6.27;;;5.53;;
5245;SDS011;54412;51.206;6.888;2022-09-24T05:31:43;8.63;;;6.47;;
5245;SDS011;54412;51.206;6.888;2022-09-24T05:34:09;6.33;;;5.33;;
5245;SDS011;54412;51.206;6.888;2022-09-24T05:36:35;7.47;;;5.77;;
5245;SDS011;54412;51.206;6.888;2022-09-24T05:39:01;11.37;;;6.10;;
5245;SDS011;54412;51.206;6.888;2022-09-24T05:41:27;8.30;;;5.57;;
5245;SDS011;54412;51.206;6.888;2022-09-24T05:43:53;9.67;;;5.23;;
5245;SDS011;54412;51.206;6.888;2022-09-24T05:46:20;6.73;;;5.47;;
5245;SDS011;54412;51.206;6.888;2022-09-24T05:48:46;7.50;;;5.50;;
5245;SDS011;54412;51.206;6.888;2022-09-24T05:51:12;8.07;;;6.60;;
5245;SDS011;54412;51.206;6.888;2022-09-24T05:53:38;8.03;;;5.87;;
5245;SDS011;54412;51.206;6.888;2022-09-24T05:56:03;7.27;;;5.20;;
5245;SDS011;54412;51.206;6.888;2022-09-24T05:58:30;8.83;;;6.47;;
5245;SDS011;54412;51.206;6.888;2022-09-24T06:00:57;13.40;;;5.53;;
5245;SDS011;54412;51.206;6.888;2022-09-24T06:03:25;9.37;;;4.93;;
5245;SDS011;54412;51.206;6.888;2022-09-24T06:05:51;9.63;;;5.83;;
5245;SDS011;54412;51.206;6.888;2022-09-24T06:08:18;12.03;;;5.90;;
5245;SDS011;54412;51.206;6.888;2022-09-24T06:10:45;20.33;;;6.87;;
5245;SDS011;54412;51.206;6.888;2022-09-24T06:13:12;8.07;;;6.33;;
5245;SDS011;54412;51.206;6.888;2022-09-24T06:15:43;8.70;;;6.50;;
5245;SDS011;54412;51.206;6.888;2022-09-24T06:18:09;10.43;;;6.00;;
5245;SDS011;54412;51.206;6.888;2022-09-24T06:20:36;8.47;;;5.77;;
5245;SDS011;54412;51.206;6.888;2022-09-24T06:23:02;11.27;;;6.37;;
5245;SDS011;54412;51.206;6.888;2022-09-24T06:25:28;9.40;;;6.63;;
5245;SDS011;54412;51.206;6.888;2022-09-24T06:27:58;10.30;;;6.23;;
5245;SDS011;54412;51.206;6.888;2022-09-24T06:30:31;7.47;;;6.20;;
5245;SDS011;54412;51.206;6.888;2022-09-24T06:33:03;10.53;;;5.50;;
5245;SDS011;54412;51.206;6.888;2022-09-24T06:35:37;9.53;;;6.47;;
5245;SDS011;54412;51.206;6.888;2022-09-24T06:38:06;10.03;;;6.70;;
5245;SDS011;54412;51.206;6.888;2022-09-24T06:40:36;12.33;;;6.73;;
5245;SDS011;54412;51.206;6.888;2022-09-24T06:43:03;10.20;;;6.30;;
5245;SDS011;54412;51.206;6.888;2022-09-24T06:45:34;13.00;;;6.97;;
5245;SDS011;54412;51.206;6.888;2022-09-24T06:48:01;9.17;;;6.97;;
5245;SDS011;54412;51.206;6.888;2022-09-24T06:50:29;9.37;;;6.83;;
5245;SDS011;54412;51.206;6.888;2022-09-24T06:52:58;10.67;;;6.50;;
5245;SDS011;54412;51.206;6.888;2022-09-24T06:55:27;11.20;;;6.50;;
5245;SDS011;54412;51.206;6.888;2022-09-24T06:58:06;15.00;;;7.20;;
5245;SDS011;54412;51.206;6.888;2022-09-24T07:00:36;8.60;;;6.77;;
5245;SDS011;54412;51.206;6.888;2022-09-24T07:03:03;9.57;;;6.73;;
5245;SDS011;54412;51.206;6.888;2022-09-24T07:05:30;11.87;;;7.30;;
5245;SDS011;54412;51.206;6.888;2022-09-24T07:07:57;9.00;;;6.57;;
5245;SDS011;54412;51.206;6.888;2022-09-24T07:10:23;11.10;;;6.97;;
5245;SDS011;54412;51.206;6.888;2022-09-24T07:12:51;25.50;;;7.50;;
5245;SDS011;54412;51.206;6.888;2022-09-24T07:15:17;8.53;;;7.70;;
5245;SDS011;54412;51.206;6.888;2022-09-24T07:17:42;10.07;;;7.43;;
5245;SDS011;54412;51.206;6.888;2022-09-24T07:20:08;11.97;;;8.10;;
5245;SDS011;54412;51.206;6.888;2022-09-24T07:22:37;15.13;;;7.00;;
5245;SDS011;54412;51.206;6.888;2022-09-24T07:25:09;9.30;;;7.27;;
5245;SDS011;54412;51.206;6.888;2022-09-24T07:27:36;7.50;;;6.50;;
5245;SDS011;54412;51.206;6.888;2022-09-24T07:30:06;9.60;;;8.03;;
5245;SDS011;54412;51.206;6.888;2022-09-24T07:32:33;15.03;;;8.07;;
5245;SDS011;54412;51.206;6.888;2022-09-24T07:34:59;11.50;;;8.87;;
5245;SDS011;54412;51.206;6.888;2022-09-24T07:37:25;13.03;;;7.67;;
5245;SDS011;54412;51.206;6.888;2022-09-24T07:39:51;13.40;;;7.27;;
5245;SDS011;54412;51.206;6.888;2022-09-24T07:42:17;14.00;;;9.07;;
5245;SDS011;54412;51.206;6.888;2022-09-24T07:44:43;14.77;;;8.30;;
5245;SDS011;54412;51.206;6.888;2022-09-24T07:47:10;13.67;;;9.10;;
5245;SDS011;54412;51.206;6.888;2022-09-24T07:49:36;16.57;;;8.60;;
5245;SDS011;54412;51.206;6.888;2022-09-24T07:52:03;13.60;;;8.90;;
5245;SDS011;54412;51.206;6.888;2022-09-24T07:54:28;14.23;;;9.37;;
5245;SDS011;54412;51.206;6.888;2022-09-24T07:56:55;15.13;;;8.30;;
5245;SDS011;54412;51.206;6.888;2022-09-24T07:59:21;16.73;;;9.97;;
5245;SDS011;54412;51.206;6.888;2022-09-24T08:01:47;14.27;;;8.63;;
5245;SDS011;54412;51.206;6.888;2022-09-24T08:04:12;14.80;;;9.50;;
5245;SDS011;54412;51.206;6.888;2022-09-24T08:06:38;18.60;;;10.40;;
5245;SDS011;54412;51.206;6.888;2022-09-24T08:09:04;17.33;;;10.30;;
5245;SDS011;54412;51.206;6.888;2022-09-24T08:11:30;13.57;;;9.93;;
5245;SDS011;54412;51.206;6.888;2022-09-24T08:13:57;16.10;;;10.10;;
5245;SDS011;54412;51.206;6.888;2022-09-24T08:16:24;14.73;;;11.00;;
5245;SDS011;54412;51.206;6.888;2022-09-24T08:18:51;15.90;;;11.03;;
5245;SDS011;54412;51.206;6.888;2022-09-24T08:21:17;16.73;;;11.43;;
5245;SDS011;54412;51.206;6.888;2022-09-24T08:23:43;21.60;;;11.97;;
5245;SDS011;54412;51.206;6.888;2022-09-24T08:26:10;14.63;;;11.73;;
5245;SDS011;54412;51.206;6.888;2022-09-24T08:28:37;18.63;;;12.70;;
5245;SDS011;54412;51.206;6.888;2022-09-24T08:31:06;18.57;;;12.60;;
5245;SDS011;54412;51.206;6.888;2022-09-24T08:33:35;14.87;;;12.70;;
5245;SDS011;54412;51.206;6.888;2022-09-24T08:36:02;18.67;;;11.97;;
5245;SDS011;54412;51.206;6.888;2022-09-24T08:38:31;18.30;;;12.97;;
5245;SDS011;54412;51.206;6.888;2022-09-24T08:41:00;22.37;;;14.57;;
5245;SDS011;54412;51.206;6.888;2022-09-24T08:44:03;15.37;;;13.70;;
5245;SDS011;54412;51.206;6.888;2022-09-24T08:47:06;19.07;;;12.53;;
5245;SDS011;54412;51.206;6.888;2022-09-24T08:49:57;21.53;;;14.57;;
5245;SDS011;54412;51.206;6.888;2022-09-24T08:54:59;17.63;;;14.67;;
5245;SDS011;54412;51.206;6.888;2022-09-24T08:57:48;21.60;;;13.17;;
5245;SDS011;54412;51.206;6.888;2022-09-24T09:01:04;17.13;;;12.33;;
5245;SDS011;54412;51.206;6.888;2022-09-24T09:06:59;18.30;;;15.67;;
5245;SDS011;54412;51.206;6.888;2022-09-24T09:10:06;19.97;;;13.97;;
5245;SDS011;54412;51.206;6.888;2022-09-24T09:12:44;20.77;;;13.67;;
5245;SDS011;54412;51.206;6.888;2022-09-24T09:15:20;18.87;;;13.10;;
5245;SDS011;54412;51.206;6.888;2022-09-24T09:18:09;19.33;;;13.87;;
5245;SDS011;54412;51.206;6.888;2022-09-24T09:20:43;20.53;;;15.10;;
5245;SDS011;54412;51.206;6.888;2022-09-24T09:25:50;18.97;;;14.73;;
5245;SDS011;54412;51.206;6.888;2022-09-24T09:28:20;17.50;;;14.00;;
5245;SDS011;54412;51.206;6.888;2022-09-24T09:30:54;25.43;;;14.20;;
5245;SDS011;54412;51.206;6.888;2022-09-24T09:39:21;20.93;;;13.93;;
5245;SDS011;54412;51.206;6.888;2022-09-24T09:44:49;16.43;;;12.60;;
5245;SDS011;54412;51.206;6.888;2022-09-24T09:53:19;21.13;;;13.83;;
5245;SDS011;54412;51.206;6.888;2022-09-24T09:58:35;17.50;;;13.23;;
5245;SDS011;54412;51.206;6.888;2022-09-24T10:01:09;18.40;;;13.47;;
5245;SDS011;54412;51.206;6.888;2022-09-24T10:06:10;22.40;;;13.13;;
5245;SDS011;54412;51.206;6.888;2022-09-24T10:08:51;20.27;;;14.67;;
5245;SDS011;54412;51.206;6.888;2022-09-24T10:11:18;24.63;;;13.67;;
5245;SDS011;54412;51.206;6.888;2022-09-24T10:13:46;17.93;;;13.97;;
5245;SDS011;54412;51.206;6.888;2022-09-24T10:16:25;19.87;;;14.10;;
5245;SDS011;54412;51.206;6.888;2022-09-24T10:18:51;14.87;;;12.53;;
5245;SDS011;54412;51.206;6.888;2022-09-24T10:21:30;21.33;;;13.87;;
5245;SDS011;54412;51.206;6.888;2022-09-24T10:24:04;21.90;;;13.87;;
5245;SDS011;54412;51.206;6.888;2022-09-24T10:26:40;17.80;;;13.40;;
5245;SDS011;54412;51.206;6.888;2022-09-24T10:29:11;18.20;;;12.80;;
5245;SDS011;54412;51.206;6.888;2022-09-24T10:32:04;21.30;;;14.10;;
5245;SDS011;54412;51.206;6.888;2022-09-24T10:34:39;18.63;;;14.83;;
5245;SDS011;54412;51.206;6.888;2022-09-24T10:37:12;19.83;;;12.50;;
5245;SDS011;54412;51.206;6.888;2022-09-24T10:39:40;20.90;;;13.30;;
5245;SDS011;54412;51.206;6.888;2022-09-24T10:42:22;18.47;;;13.33;;
5245;SDS011;54412;51.206;6.888;2022-09-24T10:44:50;19.80;;;14.10;;
5245;SDS011;54412;51.206;6.888;2022-09-24T10:50:02;21.23;;;12.40;;
5245;SDS011;54412;51.206;6.888;2022-09-24T10:52:51;18.87;;;12.93;;
5245;SDS011;54412;51.206;6.888;2022-09-24T10:55:36;17.60;;;12.80;;
5245;SDS011;54412;51.206;6.888;2022-09-24T10:58:34;19.10;;;12.03;;
5245;SDS011;54412;51.206;6.888;2022-09-24T11:01:43;16.40;;;12.63;;
5245;SDS011;54412;51.206;6.888;2022-09-24T11:10:09;19.13;;;12.90;;
5245;SDS011;54412;51.206;6.888;2022-09-24T11:24:37;19.00;;;12.30;;
5245;SDS011;54412;51.206;6.888;2022-09-24T11:27:53;18.00;;;11.33;;
5245;SDS011;54412;51.206;6.888;2022-09-24T11:30:20;13.00;;;11.00;;
5245;SDS011;54412;51.206;6.888;2022-09-24T11:41:58;14.97;;;11.77;;
5245;SDS011;54412;51.206;6.888;2022-09-24T11:56:12;16.00;;;10.60;;
5245;SDS011;54412;51.206;6.888;2022-09-24T11:59:03;16.03;;;11.50;;
5245;SDS011;54412;51.206;6.888;2022-09-24T12:02:18;15.70;;;11.50;;
5245;SDS011;54412;51.206;6.888;2022-09-24T12:04:57;17.83;;;12.10;;
5245;SDS011;54412;51.206;6.888;2022-09-24T12:10:22;15.00;;;11.23;;
5245;SDS011;54412;51.206;6.888;2022-09-24T12:13:14;11.53;;;9.30;;
5245;SDS011;54412;51.206;6.888;2022-09-24T12:15:57;14.20;;;11.43;;
5245;SDS011;54412;51.206;6.888;2022-09-24T12:18:34;19.00;;;11.30;;
5245;SDS011;54412;51.206;6.888;2022-09-24T12:21:09;11.93;;;9.90;;
5245;SDS011;54412;51.206;6.888;2022-09-24T12:23:43;22.27;;;12.67;;
5245;SDS011;54412;51.206;6.888;2022-09-24T12:26:12;16.57;;;11.00;;
5245;SDS011;54412;51.206;6.888;2022-09-24T12:31:51;16.23;;;11.83;;
5245;SDS011;54412;51.206;6.888;2022-09-24T12:34:57;13.60;;;9.63;;
5245;SDS011;54412;51.206;6.888;2022-09-24T12:37:38;14.47;;;10.40;;
5245;SDS011;54412;51.206;6.888;2022-09-24T12:42:44;18.03;;;11.50;;
5245;SDS011;54412;51.206;6.888;2022-09-24T12:45:19;26.93;;;12.13;;
5245;SDS011;54412;51.206;6.888;2022-09-24T12:47:57;13.40;;;9.77;;
5245;SDS011;54412;51.206;6.888;2022-09-24T12:50:26;12.47;;;9.93;;
5245;SDS011;54412;51.206;6.888;2022-09-24T12:52:57;13.53;;;9.27;;
5245;SDS011;54412;51.206;6.888;2022-09-24T12:57:58;23.57;;;10.13;;
5245;SDS011;54412;51.206;6.888;2022-09-24T13:00:37;24.43;;;11.20;;
5245;SDS011;54412;51.206;6.888;2022-09-24T13:03:29;14.67;;;8.80;;
5245;SDS011;54412;51.206;6.888;2022-09-24T13:05:54;18.20;;;10.87;;
5245;SDS011;54412;51.206;6.888;2022-09-24T13:08:24;13.73;;;10.07;;
5245;SDS011;54412;51.206;6.888;2022-09-24T13:11:01;15.67;;;10.43;;
5245;SDS011;54412;51.206;6.888;2022-09-24T13:13:56;14.70;;;10.50;;
5245;SDS011;54412;51.206;6.888;2022-09-24T13:16:41;16.27;;;10.10;;
5245;SDS011;54412;51.206;6.888;2022-09-24T13:22:18;11.90;;;9.33;;
5245;SDS011;54412;51.206;6.888;2022-09-24T13:25:17;10.53;;;8.33;;
5245;SDS011;54412;51.206;6.888;2022-09-24T13:27:54;12.30;;;8.00;;
5245;SDS011;54412;51.206;6.888;2022-09-24T13:33:02;9.93;;;8.70;;
5245;SDS011;54412;51.206;6.888;2022-09-24T13:38:36;11.67;;;6.70;;
5245;SDS011;54412;51.206;6.888;2022-09-24T13:42:04;10.63;;;8.17;;
5245;SDS011;54412;51.206;6.888;2022-09-24T13:47:13;8.67;;;7.73;;
5245;SDS011;54412;51.206;6.888;2022-09-24T13:49:47;9.27;;;7.47;;
5245;SDS011;54412;51.206;6.888;2022-09-24T13:52:26;10.43;;;7.33;;
5245;SDS011;54412;51.206;6.888;2022-09-24T13:55:28;8.37;;;6.70;;
5245;SDS011;54412;51.206;6.888;2022-09-24T13:58:00;10.20;;;7.60;;
5245;SDS011;54412;51.206;6.888;2022-09-24T14:00:26;12.17;;;7.13;;
5245;SDS011;54412;51.206;6.888;2022-09-24T14:03:02;12.67;;;8.20;;
5245;SDS011;54412;51.206;6.888;2022-09-24T14:05:44;10.67;;;7.33;;
5245;SDS011;54412;51.206;6.888;2022-09-24T14:08:13;11.80;;;7.83;;
5245;SDS011;54412;51.206;6.888;2022-09-24T14:10:42;8.53;;;7.67;;
5245;SDS011;54412;51.206;6.888;2022-09-24T14:18:20;8.80;;;7.23;;
5245;SDS011;54412;51.206;6.888;2022-09-24T14:20:49;11.70;;;8.47;;
5245;SDS011;54412;51.206;6.888;2022-09-24T14:23:46;12.20;;;8.80;;
5245;SDS011;54412;51.206;6.888;2022-09-24T14:28:59;11.50;;;8.43;;
5245;SDS011;54412;51.206;6.888;2022-09-24T14:31:47;12.33;;;10.33;;
5245;SDS011;54412;51.206;6.888;2022-09-24T14:36:57;15.30;;;9.93;;
5245;SDS011;54412;51.206;6.888;2022-09-24T14:39:43;13.33;;;10.23;;
5245;SDS011;54412;51.206;6.888;2022-09-24T14:42:16;15.30;;;10.03;;
5245;SDS011;54412;51.206;6.888;2022-09-24T14:45:25;14.47;;;8.60;;
5245;SDS011;54412;51.206;6.888;2022-09-24T14:48:43;16.50;;;9.47;;
5245;SDS011;54412;51.206;6.888;2022-09-24T14:50:55;13.73;;;9.40;;
5245;SDS011;54412;51.206;6.888;2022-09-24T14:56:00;16.67;;;9.20;;
5245;SDS011;54412;51.206;6.888;2022-09-24T14:58:56;18.43;;;10.47;;
5245;SDS011;54412;51.206;6.888;2022-09-24T15:01:24;14.70;;;10.23;;
5245;SDS011;54412;51.206;6.888;2022-09-24T15:03:56;13.03;;;9.33;;
5245;SDS011;54412;51.206;6.888;2022-09-24T15:06:31;18.13;;;10.27;;
5245;SDS011;54412;51.206;6.888;2022-09-24T15:09:03;12.37;;;10.63;;
5245;SDS011;54412;51.206;6.888;2022-09-24T15:12:05;15.73;;;11.70;;
5245;SDS011;54412;51.206;6.888;2022-09-24T15:14:54;15.53;;;10.40;;
5245;SDS011;54412;51.206;6.888;2022-09-24T15:17:45;16.53;;;11.00;;
5245;SDS011;54412;51.206;6.888;2022-09-24T15:20:11;15.33;;;10.40;;
5245;SDS011;54412;51.206;6.888;2022-09-24T15:22:37;13.53;;;10.60;;
5245;SDS011;54412;51.206;6.888;2022-09-24T15:25:06;15.67;;;11.73;;
5245;SDS011;54412;51.206;6.888;2022-09-24T15:27:34;16.17;;;13.13;;
5245;SDS011;54412;51.206;6.888;2022-09-24T15:30:03;13.33;;;11.30;;
5245;SDS011;54412;51.206;6.888;2022-09-24T15:32:32;25.23;;;14.63;;
5245;SDS011;54412;51.206;6.888;2022-09-24T15:35:02;16.13;;;11.60;;
5245;SDS011;54412;51.206;6.888;2022-09-24T15:37:33;28.50;;;14.90;;
5245;SDS011;54412;51.206;6.888;2022-09-24T15:40:07;15.23;;;11.70;;
5245;SDS011;54412;51.206;6.888;2022-09-24T15:42:47;21.90;;;10.50;;
5245;SDS011;54412;51.206;6.888;2022-09-24T15:45:15;12.50;;;10.70;;
5245;SDS011;54412;51.206;6.888;2022-09-24T15:47:49;13.03;;;10.40;;
5245;SDS011;54412;51.206;6.888;2022-09-24T15:50:18;16.30;;;11.50;;
5245;SDS011;54412;51.206;6.888;2022-09-24T15:52:48;11.50;;;9.77;;
5245;SDS011;54412;51.206;6.888;2022-09-24T15:55:22;15.30;;;11.20;;
5245;SDS011;54412;51.206;6.888;2022-09-24T15:57:48;18.30;;;10.13;;
5245;SDS011;54412;51.206;6.888;2022-09-24T16:00:14;12.40;;;10.60;;
5245;SDS011;54412;51.206;6.888;2022-09-24T16:02:43;11.60;;;10.33;;
5245;SDS011;54412;51.206;6.888;2022-09-24T16:05:14;15.90;;;11.20;;
5245;SDS011;54412;51.206;6.888;2022-09-24T16:07:41;13.67;;;11.40;;
5245;SDS011;54412;51.206;6.888;2022-09-24T16:10:07;13.00;;;11.00;;
5245;SDS011;54412;51.206;6.888;2022-09-24T16:12:35;13.03;;;11.23;;
5245;SDS011;54412;51.206;6.888;2022-09-24T16:15:01;14.83;;;11.37;;
5245;SDS011;54412;51.206;6.888;2022-09-24T16:17:28;12.47;;;9.90;;
5245;SDS011;54412;51.206;6.888;2022-09-24T16:19:54;11.23;;;10.03;;
5245;SDS011;54412;51.206;6.888;2022-09-24T16:22:20;12.87;;;9.20;;
5245;SDS011;54412;51.206;6.888;2022-09-24T16:24:45;16.83;;;10.93;;
5245;SDS011;54412;51.206;6.888;2022-09-24T16:27:11;10.90;;;9.80;;
5245;SDS011;54412;51.206;6.888;2022-09-24T16:29:37;11.10;;;9.77;;
5245;SDS011;54412;51.206;6.888;2022-09-24T16:32:02;15.97;;;13.50;;
5245;SDS011;54412;51.206;6.888;2022-09-24T16:34:28;17.60;;;13.27;;
5245;SDS011;54412;51.206;6.888;2022-09-24T16:36:54;28.63;;;18.47;;
5245;SDS011;54412;51.206;6.888;2022-09-24T16:39:20;33.17;;;19.93;;
5245;SDS011;54412;51.206;6.888;2022-09-24T16:41:46;31.73;;;22.63;;
5245;SDS011;54412;51.206;6.888;2022-09-24T16:44:13;16.93;;;13.70;;
5245;SDS011;54412;51.206;6.888;2022-09-24T16:46:39;13.30;;;11.50;;
5245;SDS011;54412;51.206;6.888;2022-09-24T16:49:07;13.53;;;10.87;;
5245;SDS011;54412;51.206;6.888;2022-09-24T16:51:32;12.30;;;9.67;;
5245;SDS011;54412;51.206;6.888;2022-09-24T16:53:58;11.20;;;9.80;;
5245;SDS011;54412;51.206;6.888;2022-09-24T16:56:24;11.30;;;10.03;;
5245;SDS011;54412;51.206;6.888;2022-09-24T16:58:50;14.13;;;9.77;;
5245;SDS011;54412;51.206;6.888;2022-09-24T17:01:17;11.87;;;10.67;;
5245;SDS011;54412;51.206;6.888;2022-09-24T17:03:55;11.40;;;10.20;;
5245;SDS011;54412;51.206;6.888;2022-09-24T17:06:24;13.13;;;10.57;;
5245;SDS011;54412;51.206;6.888;2022-09-24T17:08:54;15.17;;;11.10;;
5245;SDS011;54412;51.206;6.888;2022-09-24T17:11:39;19.97;;;11.77;;
5245;SDS011;54412;51.206;6.888;2022-09-24T17:14:06;13.37;;;10.03;;
5245;SDS011;54412;51.206;6.888;2022-09-24T17:16:35;16.57;;;13.30;;
5245;SDS011;54412;51.206;6.888;2022-09-24T17:19:01;13.50;;;12.03;;
5245;SDS011;54412;51.206;6.888;2022-09-24T17:21:27;12.97;;;11.43;;
5245;SDS011;54412;51.206;6.888;2022-09-24T17:23:53;13.63;;;11.50;;
5245;SDS011;54412;51.206;6.888;2022-09-24T17:26:20;12.87;;;10.90;;